createdAt,value
2018-04-25T04:17:58.252Z,7.83
2018-04-25T04:20:26.703Z,9.77
2018-04-25T04:22:55.199Z,9.20
2018-04-25T04:25:23.725Z,8.47
2018-04-25T04:27:52.210Z,8.60
2018-04-25T04:30:20.671Z,9.10
2018-04-25T04:32:49.168Z,18.87
2018-04-25T04:35:17.376Z,20.73
2018-04-25T04:37:45.874Z,11.00
2018-04-25T04:40:14.311Z,10.67
2018-04-25T04:42:42.779Z,7.50
2018-04-25T04:45:11.254Z,9.97
2018-04-25T04:47:39.734Z,16.87
2018-04-25T04:50:08.263Z,10.50
2018-04-25T04:52:36.728Z,8.17
2018-04-25T04:55:05.171Z,8.83
2018-04-25T04:57:34.212Z,9.40
2018-04-25T05:00:02.716Z,15.17
2018-04-25T05:02:31.553Z,14.40
2018-04-25T05:05:00.275Z,8.93
2018-04-25T05:07:28.707Z,7.83
2018-04-25T05:09:57.991Z,7.03
2018-04-25T05:12:26.444Z,10.10
2018-04-25T05:14:54.887Z,8.67
2018-04-25T05:17:23.363Z,11.40
2018-04-25T05:19:51.808Z,8.23
2018-04-25T05:22:20.271Z,10.40
2018-04-25T05:24:48.733Z,7.30
2018-04-25T05:27:17.953Z,11.53
2018-04-25T05:29:46.432Z,7.77
2018-04-25T05:32:14.971Z,6.60
2018-04-25T05:34:43.511Z,8.70
2018-04-25T05:37:11.983Z,10.33
2018-04-25T05:39:40.442Z,11.10
2018-04-25T05:42:08.929Z,9.40
2018-04-25T05:44:37.387Z,8.00
2018-04-25T05:47:05.917Z,8.10
2018-04-25T05:49:34.398Z,11.10
2018-04-25T05:52:02.874Z,8.60
2018-04-25T05:54:31.424Z,9.33
2018-04-25T05:56:59.900Z,9.03
2018-04-25T05:59:28.353Z,9.23
2018-04-25T06:01:57.961Z,6.33
2018-04-25T06:04:26.394Z,9.30
2018-04-25T06:06:54.899Z,10.07
2018-04-25T06:09:23.344Z,6.83
2018-04-25T06:11:51.842Z,8.77
2018-04-25T06:14:20.400Z,8.87
2018-04-25T06:16:48.864Z,7.23
2018-04-25T06:19:18.148Z,11.17
2018-04-25T06:21:47.084Z,7.80
2018-04-25T06:24:16.330Z,5.20
2018-04-25T06:26:45.121Z,9.20
2018-04-25T06:29:13.576Z,7.90
2018-04-25T06:31:42.035Z,6.93
2018-04-25T06:34:10.529Z,7.23
2018-04-25T06:36:38.736Z,7.73
2018-04-25T06:39:06.868Z,7.67
2018-04-25T06:41:35.343Z,9.53
2018-04-25T06:44:04.582Z,6.87
2018-04-25T06:46:33.031Z,8.93
2018-04-25T06:49:01.535Z,7.20
2018-04-25T06:51:29.985Z,6.50
2018-04-25T06:53:59.259Z,10.13
2018-04-25T06:56:27.740Z,7.13
2018-04-25T06:58:56.970Z,7.50
2018-04-25T07:01:25.471Z,8.70
2018-04-25T07:03:53.947Z,9.77
2018-04-25T07:06:22.465Z,6.87
2018-04-25T07:08:51.119Z,7.60
2018-04-25T07:11:19.570Z,7.30
2018-04-25T07:13:47.794Z,10.50
2018-04-25T07:16:16.262Z,6.90
2018-04-25T07:18:44.722Z,6.67
2018-04-25T07:21:13.160Z,7.43
2018-04-25T07:23:41.635Z,7.37
2018-04-25T07:26:10.107Z,5.23
2018-04-25T07:28:38.593Z,9.30
2018-04-25T07:31:07.075Z,8.10
2018-04-25T07:33:36.289Z,7.33
2018-04-25T07:36:04.763Z,5.43
2018-04-25T07:38:33.284Z,6.93
2018-04-25T07:41:01.744Z,5.77
2018-04-25T07:43:30.204Z,4.60
2018-04-25T07:45:58.643Z,6.27
2018-04-25T07:48:27.652Z,7.30
2018-04-25T07:50:56.101Z,5.30
2018-04-25T07:53:24.539Z,8.77
2018-04-25T07:55:53.039Z,10.00
2018-04-25T07:58:21.477Z,5.93
2018-04-25T08:00:50.175Z,5.30
2018-04-25T08:03:18.643Z,4.90
2018-04-25T08:05:47.873Z,8.03
2018-04-25T08:08:16.354Z,10.20
2018-04-25T08:10:44.799Z,5.57
2018-04-25T08:16:34.343Z,5.77
2018-04-25T08:19:13.982Z,8.13
2018-04-25T08:21:42.551Z,5.60
2018-04-25T08:24:11.052Z,5.93
2018-04-25T08:26:39.747Z,5.30
2018-04-25T08:29:08.221Z,11.73
2018-04-25T08:31:36.701Z,5.53
2018-04-25T08:34:05.197Z,4.43
2018-04-25T08:36:33.639Z,4.90
2018-04-25T08:39:02.831Z,7.70
2018-04-25T08:41:32.059Z,6.30
2018-04-25T08:44:00.530Z,8.63
2018-04-25T08:46:28.968Z,6.00
2018-04-25T08:48:57.431Z,4.83
2018-04-25T08:51:25.919Z,3.80
2018-04-25T08:53:54.372Z,5.47
2018-04-25T08:56:23.580Z,7.10
2018-04-25T08:58:52.064Z,3.03
2018-04-25T09:01:20.511Z,4.70
2018-04-25T09:03:49.719Z,4.10
2018-04-25T09:06:18.177Z,3.97
2018-04-25T09:08:47.518Z,3.80
2018-04-25T09:11:15.957Z,3.73
2018-04-25T09:13:45.187Z,3.77
2018-04-25T09:16:13.628Z,2.57
2018-04-25T09:18:42.079Z,4.33
2018-04-25T09:21:10.536Z,5.80
2018-04-25T09:23:39.072Z,3.50
2018-04-25T09:26:07.593Z,5.80
2018-04-25T09:28:36.069Z,5.07
2018-04-25T09:31:05.302Z,3.00
2018-04-25T09:33:33.755Z,4.10
2018-04-25T09:36:03.403Z,3.60
2018-04-25T09:38:31.876Z,2.90
2018-04-25T09:41:00.323Z,4.33
2018-04-25T09:43:28.796Z,3.13
2018-04-25T09:45:58.101Z,3.67
2018-04-25T09:48:26.726Z,2.60
2018-04-25T09:50:54.975Z,5.80
2018-04-25T09:53:23.451Z,3.13
2018-04-25T09:55:52.755Z,6.77
2018-04-25T09:58:21.986Z,4.90
2018-04-25T10:00:55.876Z,3.37
2018-04-25T10:03:24.691Z,3.33
2018-04-25T10:05:53.158Z,6.73
2018-04-25T10:08:21.633Z,3.20
2018-04-25T10:10:50.132Z,3.27
2018-04-25T10:13:19.517Z,3.87
2018-04-25T10:15:47.975Z,7.43
2018-04-25T10:18:17.220Z,5.40
2018-04-25T10:20:45.667Z,6.83
2018-04-25T10:23:14.124Z,3.90
2018-04-25T10:25:42.595Z,5.73
2018-04-25T10:28:11.230Z,13.97
2018-04-25T10:30:39.666Z,2.93
2018-04-25T10:33:08.216Z,3.17
2018-04-25T10:35:36.667Z,2.87
2018-04-25T10:38:05.104Z,2.27
2018-04-25T10:40:33.587Z,5.40
2018-04-25T10:43:02.349Z,4.93
2018-04-25T10:45:30.782Z,5.03
2018-04-25T10:47:59.220Z,5.47
2018-04-25T10:50:27.655Z,6.90
2018-04-25T10:52:56.906Z,6.40
2018-04-25T10:55:25.422Z,3.90
2018-04-25T10:57:54.025Z,5.67
2018-04-25T11:00:22.654Z,4.70
2018-04-25T11:02:50.866Z,3.70
2018-04-25T11:05:19.307Z,5.80
2018-04-25T11:07:47.850Z,4.47
2018-04-25T11:10:16.369Z,5.17
2018-04-25T11:12:44.832Z,4.57
2018-04-25T11:15:13.307Z,8.00
2018-04-25T11:17:42.592Z,5.80
2018-04-25T11:20:11.811Z,4.20
2018-04-25T11:22:40.263Z,3.63
2018-04-25T11:25:08.716Z,4.43
2018-04-25T11:27:37.155Z,7.30
2018-04-25T11:30:05.599Z,4.80
2018-04-25T11:32:34.090Z,4.97
2018-04-25T11:35:03.349Z,7.73
2018-04-25T11:37:31.811Z,4.93
2018-04-25T11:40:00.270Z,4.90
2018-04-25T11:42:28.735Z,6.37
2018-04-25T11:44:57.167Z,5.30
2018-04-25T11:47:25.742Z,7.20
2018-04-25T11:49:54.061Z,7.10
2018-04-25T11:52:22.586Z,5.63
2018-04-25T11:54:51.841Z,4.00
2018-04-25T11:57:20.287Z,3.97
2018-04-25T11:59:48.756Z,7.37
2018-04-25T12:02:17.985Z,4.17
2018-04-25T12:04:46.467Z,5.30
2018-04-25T12:07:14.920Z,5.40
2018-04-25T12:09:44.130Z,4.30
2018-04-25T12:12:12.615Z,7.10
2018-04-25T12:14:41.069Z,4.27
2018-04-25T12:17:10.291Z,6.27
2018-04-25T12:19:38.560Z,5.10
2018-04-25T12:22:07.037Z,6.47
2018-04-25T12:24:36.232Z,4.63
2018-04-25T12:27:05.468Z,4.83
2018-04-25T12:29:33.915Z,8.33
2018-04-25T12:32:03.116Z,7.83
2018-04-25T12:34:32.376Z,5.50
2018-04-25T12:37:00.814Z,6.60
2018-04-25T12:39:29.314Z,5.60
2018-04-25T12:41:57.819Z,7.93
2018-04-25T12:44:26.261Z,5.40
2018-04-25T12:46:54.735Z,5.30
2018-04-25T12:49:23.939Z,5.30
2018-04-25T12:51:53.205Z,5.97
2018-04-25T12:54:21.655Z,6.50
2018-04-25T12:56:50.899Z,6.43
2018-04-25T12:59:20.123Z,10.00
2018-04-25T13:01:48.608Z,7.17
2018-04-25T13:04:17.083Z,5.67
2018-04-25T13:06:45.583Z,6.70
2018-04-25T13:09:14.195Z,6.03
2018-04-25T13:11:42.641Z,6.93
2018-04-25T13:14:11.148Z,9.07
2018-04-25T13:16:39.571Z,9.30
2018-04-25T13:19:08.010Z,5.73
2018-04-25T13:21:36.460Z,5.90
2018-04-25T13:24:04.576Z,6.97
2018-04-25T13:26:32.829Z,6.77
2018-04-25T13:29:01.067Z,6.60
2018-04-25T13:31:30.290Z,5.37
2018-04-25T13:33:59.528Z,12.90
2018-04-25T13:36:27.974Z,8.10
2018-04-25T13:38:56.419Z,13.30
2018-04-25T13:41:24.907Z,5.60
2018-04-25T13:43:54.231Z,6.20
2018-04-25T13:46:23.199Z,9.80
2018-04-25T13:48:51.678Z,7.90
2018-04-25T13:51:20.264Z,5.00
2018-04-25T13:53:48.701Z,7.63
2018-04-25T13:56:17.164Z,6.93
2018-04-25T13:58:46.404Z,6.57
2018-04-25T14:01:14.838Z,6.00
2018-04-25T14:03:44.047Z,5.93
2018-04-25T14:06:12.578Z,7.07
2018-04-25T14:08:41.931Z,5.47
2018-04-25T14:11:10.915Z,6.73
2018-04-25T14:13:40.180Z,17.53
2018-04-25T14:16:08.639Z,7.67
2018-04-25T14:18:37.096Z,6.57
2018-04-25T14:21:05.546Z,8.13
2018-04-25T14:23:33.990Z,7.40
2018-04-25T14:26:02.444Z,7.20
2018-04-25T14:28:31.904Z,5.60
2018-04-25T14:31:00.494Z,10.00
2018-04-25T14:33:28.999Z,6.53
2018-04-25T14:35:58.234Z,8.20
2018-04-25T14:38:26.662Z,9.70
2018-04-25T14:40:55.102Z,7.30
2018-04-25T14:43:23.574Z,7.73
2018-04-25T14:45:52.042Z,8.60
2018-04-25T14:48:20.521Z,5.93
2018-04-25T14:50:49.150Z,7.60
2018-04-25T14:53:17.583Z,9.80
2018-04-25T14:55:46.852Z,5.47
2018-04-25T14:58:15.058Z,6.97
2018-04-25T15:00:43.511Z,4.90
2018-04-25T15:03:11.971Z,9.27
2018-04-25T15:05:40.407Z,6.03
2018-04-25T15:08:08.851Z,5.23
2018-04-25T15:10:37.294Z,7.37
2018-04-25T15:13:05.751Z,5.90
2018-04-25T15:15:34.208Z,10.30
2018-04-25T15:18:03.435Z,9.87
2018-04-25T15:20:32.668Z,7.87
2018-04-25T15:23:01.133Z,5.20
2018-04-25T15:25:29.638Z,6.70
2018-04-25T15:27:58.187Z,12.10
2018-04-25T15:30:26.632Z,5.70
2018-04-25T15:32:55.092Z,7.00
2018-04-25T15:35:23.595Z,6.83
2018-04-25T15:37:52.163Z,6.10
2018-04-25T15:40:20.746Z,9.10
2018-04-25T15:42:49.217Z,5.93
2018-04-25T15:45:18.422Z,7.27
2018-04-25T15:47:47.811Z,6.50
2018-04-25T15:50:17.032Z,6.40
2018-04-25T15:52:45.488Z,5.93
2018-04-25T15:55:14.044Z,5.53
2018-04-25T15:57:43.251Z,8.40
2018-04-25T16:00:11.692Z,5.40
2018-04-25T16:02:40.151Z,5.80
2018-04-25T16:05:08.590Z,6.77
2018-04-25T16:07:37.056Z,6.20
2018-04-25T16:10:06.301Z,6.77
2018-04-25T16:12:34.611Z,8.03
2018-04-25T16:15:02.902Z,7.60
2018-04-25T16:17:31.415Z,7.43
2018-04-25T16:19:59.911Z,9.83
2018-04-25T16:22:28.376Z,6.73
2018-04-25T16:24:57.649Z,9.10
2018-04-25T16:27:26.091Z,11.20
2018-04-25T16:29:54.651Z,6.40
2018-04-25T16:32:23.852Z,6.17
2018-04-25T16:34:52.340Z,5.80
2018-04-25T16:37:21.857Z,9.30
2018-04-25T16:39:50.358Z,6.50
2018-04-25T16:42:18.827Z,8.10
2018-04-25T16:44:47.277Z,7.53
2018-04-25T16:47:16.532Z,7.20
2018-04-25T16:49:45.023Z,5.80
2018-04-25T16:52:13.515Z,8.93
2018-04-25T16:54:42.025Z,6.73
2018-04-25T16:57:11.323Z,7.13
2018-04-25T16:59:39.723Z,8.77
2018-04-25T17:02:08.217Z,8.87
2018-04-25T17:04:36.667Z,8.73
2018-04-25T17:07:05.886Z,8.67
2018-04-25T17:09:34.416Z,9.60
2018-04-25T17:12:03.030Z,9.00
2018-04-25T17:14:32.288Z,14.17
2018-04-25T17:17:00.773Z,14.17
2018-04-25T17:19:29.285Z,13.20
2018-04-25T17:21:58.000Z,8.63
2018-04-25T17:24:27.379Z,11.13
2018-04-25T17:26:55.821Z,10.07
2018-04-25T17:29:24.336Z,11.87
2018-04-25T17:31:52.844Z,12.97
2018-04-25T17:34:22.088Z,15.77
2018-04-25T17:36:51.386Z,7.87
2018-04-25T17:39:20.084Z,14.93
2018-04-25T17:41:48.816Z,14.67
2018-04-25T17:44:18.403Z,10.20
2018-04-25T17:46:47.206Z,15.03
2018-04-25T17:49:15.997Z,13.53
2018-04-25T17:51:45.841Z,9.37
2018-04-25T17:54:14.445Z,14.13
2018-04-25T17:56:42.975Z,12.70
2018-04-25T17:59:12.250Z,10.60
2018-04-25T18:01:40.787Z,14.60
2018-04-25T18:04:10.234Z,11.60
2018-04-25T18:06:38.943Z,12.17
2018-04-25T18:09:07.396Z,12.60
2018-04-25T18:11:36.479Z,11.97
2018-04-25T18:14:05.623Z,9.70
2018-04-25T18:16:34.136Z,19.43
2018-04-25T18:19:03.704Z,9.80
2018-04-25T18:21:32.814Z,14.03
2018-04-25T18:24:01.310Z,21.37
2018-04-25T18:26:31.171Z,12.77
2018-04-25T18:29:00.516Z,8.87
2018-04-25T18:31:29.042Z,15.13
2018-04-25T18:33:57.833Z,14.43
2018-04-25T18:36:27.664Z,10.17
2018-04-25T18:38:56.432Z,16.70
2018-04-25T18:41:25.243Z,12.77
2018-04-25T18:43:54.683Z,12.60
2018-04-25T18:46:24.155Z,14.27
2018-04-25T18:48:52.797Z,12.10
2018-04-25T18:51:23.059Z,9.93
2018-04-25T18:53:52.305Z,15.80
2018-04-25T18:56:21.130Z,22.87
2018-04-25T18:58:49.894Z,15.23
2018-04-25T19:01:19.638Z,17.73
2018-04-25T19:03:48.526Z,9.27
2018-04-25T19:06:17.326Z,14.43
2018-04-25T19:08:46.214Z,13.47
2018-04-25T19:11:18.500Z,14.10
2018-04-25T19:13:47.497Z,15.83
2018-04-25T19:16:16.858Z,14.57
2018-04-25T19:18:46.093Z,12.63
2018-04-25T19:21:15.028Z,16.13
2018-04-25T19:23:43.813Z,13.00
2018-04-25T19:26:12.040Z,11.07
2018-04-25T19:28:46.559Z,16.87
2018-04-25T19:31:15.270Z,7.53
2018-04-25T19:33:44.104Z,15.17
2018-04-25T19:36:12.804Z,11.00
2018-04-25T19:38:42.520Z,14.47
2018-04-25T19:41:11.419Z,18.00
2018-04-25T19:43:40.268Z,12.67
2018-04-25T19:46:08.804Z,15.47
2018-04-25T19:48:37.628Z,15.40
2018-04-25T19:51:06.129Z,12.40
2018-04-25T19:53:35.506Z,13.43
2018-04-25T19:56:04.837Z,11.10
2018-04-25T19:58:33.520Z,12.63
2018-04-25T20:01:02.018Z,9.40
2018-04-25T20:03:31.304Z,15.37
2018-04-25T20:05:59.800Z,11.80
2018-04-25T20:08:29.326Z,11.80
2018-04-25T20:10:57.808Z,11.70
2018-04-25T20:13:26.048Z,13.73
2018-04-25T20:15:54.572Z,14.10
2018-04-25T20:18:23.073Z,12.57
2018-04-25T20:20:52.048Z,11.37
2018-04-25T20:23:22.040Z,19.43
2018-04-25T20:25:50.862Z,11.40
2018-04-25T20:28:19.331Z,11.83
2018-04-25T20:30:48.264Z,10.87
2018-04-25T20:33:16.756Z,7.80
2018-04-25T20:35:45.880Z,16.40
2018-04-25T20:38:14.834Z,11.30
2018-04-25T20:40:43.689Z,11.63
2018-04-25T20:43:13.309Z,12.47
2018-04-25T20:45:43.112Z,11.63
2018-04-25T20:48:12.919Z,11.40
2018-04-25T20:50:42.773Z,9.40
2018-04-25T20:53:11.708Z,12.13
2018-04-25T20:55:40.612Z,9.63
2018-04-25T20:58:09.079Z,11.43
2018-04-25T21:00:38.339Z,11.60
2018-04-25T21:03:07.037Z,9.83
2018-04-25T21:05:35.501Z,10.60
2018-04-25T21:08:04.500Z,10.67
2018-04-25T21:10:33.353Z,10.97
2018-04-25T21:13:02.067Z,13.70
2018-04-25T21:15:31.678Z,9.83
2018-04-25T21:18:00.202Z,9.70
2018-04-25T21:20:29.387Z,10.33
2018-04-25T21:22:58.183Z,12.77
2018-04-25T21:25:26.712Z,9.33
2018-04-25T21:27:56.065Z,12.73
2018-04-25T21:30:24.678Z,8.93
2018-04-25T21:32:53.955Z,11.30
2018-04-25T21:35:22.509Z,13.90
2018-04-25T21:37:50.998Z,10.27
2018-04-25T21:40:19.497Z,18.53
2018-04-25T21:42:48.614Z,13.53
2018-04-25T21:45:17.105Z,15.73
2018-04-25T21:47:45.621Z,13.00
2018-04-25T21:50:14.873Z,12.80
2018-04-25T21:52:43.812Z,12.10
2018-04-25T21:55:13.106Z,16.87
2018-04-25T21:57:42.692Z,17.70
2018-04-25T22:00:10.848Z,15.70
